Airfield :
LOGIN :

Register | Disclaimer

   EN    FR    IT 

 










Legend :    VFR   Marginal VFR   IFR   Intensive IFR   Very Intensive IFR
Visi :
Ceiling :
>= 8 km
>= 3000ft
5 to 8 km
1000 to 3000 ft
1500m to 5 km
500 to 1000 ft
800 to 1500m
200 to 500 ft
< 800m
< 200 ft
Symbols :   Thunderstorms  Fog  Heavy snow  Heavy precipitations  Wind > 20 kt
SIGMETs :     Misc.  Thunderstorms  Icing  Turbulence  Mountain Waves  Volcanic Ashes






- Airport Elevation : 935 ft


EBFS - Florennes

CURRENT METAR :
  • 291712Z AUTO 21014KT 8000 -RA FEW006/// SCT013/// BKN100/// 10/09 Q1018 GRN

EXPIRED METARs :
  • 291655Z AUTO 21013KT 8000 -RA FEW006/// SCT070/// BKN100/// 10/09 Q1018 BLU
  • 291625Z 21013KT 8000 -RADZ FEW006 BKN012 BKN030 10/09 Q1018 GRN GRN TEMPO YLO
  • 291624Z 21012KT 8000 -RADZ FEW006 BKN012 BKN030 10/09 Q1018 GRN GRN TEMPO YLO
  • 291555Z 21013KT 9000 -RA FEW007 BKN013 BKN090 10/09 Q1018 GRN WHT TEMPO GRN
  • 291525Z 21011KT 9999 -RA FEW011 BKN018 BKN060 10/09 Q1018 WHT WHT TEMPO GRN
  • 291523Z 21012KT 9999 -RA FEW011 BKN018 BKN060 10/09 Q1018 WHT WHT TEMPO GRN
  • 291455Z 21009KT 9999 -RA FEW011 BKN025 BKN060 11/09 Q1018 BLU BLU TEMPO GRN
  • 291453Z 22011KT 9999 -RA FEW011 BKN025 BKN060 11/09 Q1018 BLU BLU TEMPO GRN
  • 291425Z 22012KT 9999 -RA FEW014 BKN017 BKN060 11/09 Q1018 WHT WHT TEMPO GRN

TAF TAF EBFS
Valid from the 29 at 13:00 until the 29 at 22:00 UTC


291141Z 2913/2922 23015KT 9999 FEW020 SCT030 OVC060
TEMPO 2913/2922 23020G30KT 5000 -RA -SHRA FEW010 SCT015TCU BKN020
PROB30
TEMPO 2913/2922 3000 RA SHRA SCT008 BKN013TCU BKN015



MET'MAP, your aeronautical weather chart ! - Copyright ORBIFLY December 2007 - Disclaimer

ORBIFLY MET'MAP TEAM :

Programming & Development : Alexandra Zaïnal
Concept & original design : Baudouin d'Aumeries
Assistance for programming : Marc-Olivier Méhu
Technical & hardware support : Manuel Goepfert

Contact : metmap@orbifly.com




SOURCES & CREDITS :

   NOAA